sensor_id;sensor_type;location;lat;lon;timestamp;P1;durP1;ratioP1;P2;durP2;ratioP2
79074;SDS011;68476;42.710;23.388;2023-07-29T00:00:38;7.82;;;5.15;;
79074;SDS011;68476;42.710;23.388;2023-07-29T00:03:03;6.95;;;4.70;;
79074;SDS011;68476;42.710;23.388;2023-07-29T00:05:28;5.30;;;4.80;;
79074;SDS011;68476;42.710;23.388;2023-07-29T00:07:54;5.53;;;4.75;;
79074;SDS011;68476;42.710;23.388;2023-07-29T00:10:19;7.97;;;5.05;;
79074;SDS011;68476;42.710;23.388;2023-07-29T00:12:45;6.95;;;4.80;;
79074;SDS011;68476;42.710;23.388;2023-07-29T00:15:11;7.47;;;4.63;;
79074;SDS011;68476;42.710;23.388;2023-07-29T00:17:36;6.32;;;5.05;;
79074;SDS011;68476;42.710;23.388;2023-07-29T00:20:01;5.95;;;5.15;;
79074;SDS011;68476;42.710;23.388;2023-07-29T00:22:27;7.53;;;4.60;;
79074;SDS011;68476;42.710;23.388;2023-07-29T00:24:53;6.63;;;4.95;;
79074;SDS011;68476;42.710;23.388;2023-07-29T00:27:22;6.57;;;4.85;;
79074;SDS011;68476;42.710;23.388;2023-07-29T00:29:48;5.60;;;4.80;;
79074;SDS011;68476;42.710;23.388;2023-07-29T00:32:14;6.30;;;4.93;;
79074;SDS011;68476;42.710;23.388;2023-07-29T00:34:40;8.35;;;5.15;;
79074;SDS011;68476;42.710;23.388;2023-07-29T00:37:05;7.60;;;5.10;;
79074;SDS011;68476;42.710;23.388;2023-07-29T00:39:31;7.10;;;5.07;;
79074;SDS011;68476;42.710;23.388;2023-07-29T00:41:57;7.50;;;4.72;;
79074;SDS011;68476;42.710;23.388;2023-07-29T00:44:22;7.45;;;5.40;;
79074;SDS011;68476;42.710;23.388;2023-07-29T00:46:48;9.52;;;5.57;;
79074;SDS011;68476;42.710;23.388;2023-07-29T00:49:16;5.97;;;5.00;;
79074;SDS011;68476;42.710;23.388;2023-07-29T00:51:42;6.45;;;5.75;;
79074;SDS011;68476;42.710;23.388;2023-07-29T00:54:08;9.45;;;5.97;;
79074;SDS011;68476;42.710;23.388;2023-07-29T00:56:33;6.38;;;5.55;;
79074;SDS011;68476;42.710;23.388;2023-07-29T00:58:59;6.28;;;5.13;;
79074;SDS011;68476;42.710;23.388;2023-07-29T01:01:27;7.78;;;5.82;;
79074;SDS011;68476;42.710;23.388;2023-07-29T01:03:53;5.90;;;5.18;;
79074;SDS011;68476;42.710;23.388;2023-07-29T01:06:38;6.05;;;4.90;;
79074;SDS011;68476;42.710;23.388;2023-07-29T01:11:45;6.43;;;4.53;;
79074;SDS011;68476;42.710;23.388;2023-07-29T01:14:21;5.70;;;4.90;;
79074;SDS011;68476;42.710;23.388;2023-07-29T01:17:03;5.72;;;4.63;;
79074;SDS011;68476;42.710;23.388;2023-07-29T01:22:28;7.50;;;5.47;;
79074;SDS011;68476;42.710;23.388;2023-07-29T01:24:56;5.85;;;5.07;;
79074;SDS011;68476;42.710;23.388;2023-07-29T01:27:22;6.60;;;4.60;;
79074;SDS011;68476;42.710;23.388;2023-07-29T01:29:47;5.40;;;4.50;;
79074;SDS011;68476;42.710;23.388;2023-07-29T01:32:20;5.95;;;4.55;;
79074;SDS011;68476;42.710;23.388;2023-07-29T01:34:57;5.75;;;4.53;;
79074;SDS011;68476;42.710;23.388;2023-07-29T01:37:29;7.93;;;4.90;;
79074;SDS011;68476;42.710;23.388;2023-07-29T01:39:57;5.90;;;5.03;;
79074;SDS011;68476;42.710;23.388;2023-07-29T01:42:25;6.20;;;4.65;;
79074;SDS011;68476;42.710;23.388;2023-07-29T01:44:51;9.57;;;5.35;;
79074;SDS011;68476;42.710;23.388;2023-07-29T01:47:16;6.20;;;4.57;;
79074;SDS011;68476;42.710;23.388;2023-07-29T01:49:42;6.45;;;4.90;;
79074;SDS011;68476;42.710;23.388;2023-07-29T01:52:07;6.70;;;4.88;;
79074;SDS011;68476;42.710;23.388;2023-07-29T01:54:33;7.22;;;4.70;;
79074;SDS011;68476;42.710;23.388;2023-07-29T01:56:58;5.45;;;4.65;;
79074;SDS011;68476;42.710;23.388;2023-07-29T01:59:23;5.40;;;4.60;;
79074;SDS011;68476;42.710;23.388;2023-07-29T02:01:49;5.70;;;4.50;;
79074;SDS011;68476;42.710;23.388;2023-07-29T02:04:14;5.82;;;4.80;;
79074;SDS011;68476;42.710;23.388;2023-07-29T02:06:39;5.90;;;5.03;;
79074;SDS011;68476;42.710;23.388;2023-07-29T02:09:05;5.55;;;4.35;;
79074;SDS011;68476;42.710;23.388;2023-07-29T02:11:30;5.93;;;4.55;;
79074;SDS011;68476;42.710;23.388;2023-07-29T02:13:56;5.53;;;4.97;;
79074;SDS011;68476;42.710;23.388;2023-07-29T02:16:21;5.78;;;4.85;;
79074;SDS011;68476;42.710;23.388;2023-07-29T02:18:50;5.78;;;4.65;;
79074;SDS011;68476;42.710;23.388;2023-07-29T02:21:16;5.68;;;5.00;;
79074;SDS011;68476;42.710;23.388;2023-07-29T02:23:41;6.28;;;4.63;;
79074;SDS011;68476;42.710;23.388;2023-07-29T02:26:07;5.93;;;4.82;;
79074;SDS011;68476;42.710;23.388;2023-07-29T02:28:32;5.70;;;5.10;;
79074;SDS011;68476;42.710;23.388;2023-07-29T02:31:17;6.35;;;5.13;;
79074;SDS011;68476;42.710;23.388;2023-07-29T02:33:45;6.82;;;5.05;;
79074;SDS011;68476;42.710;23.388;2023-07-29T02:36:11;5.70;;;5.10;;
79074;SDS011;68476;42.710;23.388;2023-07-29T02:38:37;5.32;;;4.50;;
79074;SDS011;68476;42.710;23.388;2023-07-29T02:41:03;6.28;;;4.72;;
79074;SDS011;68476;42.710;23.388;2023-07-29T02:43:28;7.20;;;4.55;;
79074;SDS011;68476;42.710;23.388;2023-07-29T02:45:54;6.80;;;5.60;;
79074;SDS011;68476;42.710;23.388;2023-07-29T02:48:19;6.18;;;5.15;;
79074;SDS011;68476;42.710;23.388;2023-07-29T02:50:44;5.75;;;5.15;;
79074;SDS011;68476;42.710;23.388;2023-07-29T02:53:10;5.53;;;4.85;;
79074;SDS011;68476;42.710;23.388;2023-07-29T02:55:35;6.47;;;4.63;;
79074;SDS011;68476;42.710;23.388;2023-07-29T02:58:04;7.28;;;4.85;;
79074;SDS011;68476;42.710;23.388;2023-07-29T03:00:31;6.38;;;5.25;;
79074;SDS011;68476;42.710;23.388;2023-07-29T03:02:56;6.65;;;4.95;;
79074;SDS011;68476;42.710;23.388;2023-07-29T03:05:22;5.70;;;4.85;;
79074;SDS011;68476;42.710;23.388;2023-07-29T03:07:47;6.30;;;4.82;;
79074;SDS011;68476;42.710;23.388;2023-07-29T03:10:12;5.50;;;4.93;;
79074;SDS011;68476;42.710;23.388;2023-07-29T03:12:39;6.65;;;5.38;;
79074;SDS011;68476;42.710;23.388;2023-07-29T03:15:04;7.32;;;5.00;;
79074;SDS011;68476;42.710;23.388;2023-07-29T03:17:30;6.10;;;4.75;;
79074;SDS011;68476;42.710;23.388;2023-07-29T03:19:56;5.43;;;4.93;;
79074;SDS011;68476;42.710;23.388;2023-07-29T03:22:21;6.50;;;5.13;;
79074;SDS011;68476;42.710;23.388;2023-07-29T03:24:47;7.30;;;4.93;;
79074;SDS011;68476;42.710;23.388;2023-07-29T03:27:12;5.47;;;4.82;;
79074;SDS011;68476;42.710;23.388;2023-07-29T03:29:40;6.43;;;4.57;;
79074;SDS011;68476;42.710;23.388;2023-07-29T03:32:05;7.90;;;4.93;;
79074;SDS011;68476;42.710;23.388;2023-07-29T03:34:31;6.30;;;4.80;;
79074;SDS011;68476;42.710;23.388;2023-07-29T03:36:57;6.65;;;5.03;;
79074;SDS011;68476;42.710;23.388;2023-07-29T03:39:22;9.07;;;4.78;;
79074;SDS011;68476;42.710;23.388;2023-07-29T03:41:48;5.40;;;4.65;;
79074;SDS011;68476;42.710;23.388;2023-07-29T03:44:13;5.78;;;4.50;;
79074;SDS011;68476;42.710;23.388;2023-07-29T03:46:39;5.40;;;4.80;;
79074;SDS011;68476;42.710;23.388;2023-07-29T03:49:04;5.72;;;4.57;;
79074;SDS011;68476;42.710;23.388;2023-07-29T03:51:29;6.45;;;4.70;;
79074;SDS011;68476;42.710;23.388;2023-07-29T03:53:55;6.30;;;4.75;;
79074;SDS011;68476;42.710;23.388;2023-07-29T03:56:20;5.57;;;4.88;;
79074;SDS011;68476;42.710;23.388;2023-07-29T03:58:46;6.45;;;4.97;;
79074;SDS011;68476;42.710;23.388;2023-07-29T04:01:13;9.25;;;8.35;;
79074;SDS011;68476;42.710;23.388;2023-07-29T04:03:38;5.75;;;5.15;;
79074;SDS011;68476;42.710;23.388;2023-07-29T04:06:04;5.90;;;5.13;;
79074;SDS011;68476;42.710;23.388;2023-07-29T04:08:29;5.72;;;4.80;;
79074;SDS011;68476;42.710;23.388;2023-07-29T04:10:54;7.13;;;4.75;;
79074;SDS011;68476;42.710;23.388;2023-07-29T04:13:20;5.70;;;4.82;;
79074;SDS011;68476;42.710;23.388;2023-07-29T04:15:45;6.63;;;5.43;;
79074;SDS011;68476;42.710;23.388;2023-07-29T04:18:11;9.20;;;6.07;;
79074;SDS011;68476;42.710;23.388;2023-07-29T04:20:36;7.90;;;5.82;;
79074;SDS011;68476;42.710;23.388;2023-07-29T04:23:02;6.10;;;5.45;;
79074;SDS011;68476;42.710;23.388;2023-07-29T04:25:27;7.50;;;5.38;;
79074;SDS011;68476;42.710;23.388;2023-07-29T04:27:53;9.38;;;5.30;;
79074;SDS011;68476;42.710;23.388;2023-07-29T04:30:19;7.68;;;5.45;;
79074;SDS011;68476;42.710;23.388;2023-07-29T04:32:44;6.00;;;5.40;;
79074;SDS011;68476;42.710;23.388;2023-07-29T04:35:13;7.43;;;5.57;;
79074;SDS011;68476;42.710;23.388;2023-07-29T04:37:39;5.75;;;5.15;;
79074;SDS011;68476;42.710;23.388;2023-07-29T04:40:05;7.28;;;5.10;;
79074;SDS011;68476;42.710;23.388;2023-07-29T04:42:32;5.93;;;4.93;;
79074;SDS011;68476;42.710;23.388;2023-07-29T04:44:57;5.72;;;5.03;;
79074;SDS011;68476;42.710;23.388;2023-07-29T04:47:23;6.57;;;5.03;;
79074;SDS011;68476;42.710;23.388;2023-07-29T04:49:48;5.40;;;4.72;;
79074;SDS011;68476;42.710;23.388;2023-07-29T04:52:14;5.35;;;4.85;;
79074;SDS011;68476;42.710;23.388;2023-07-29T04:54:40;5.53;;;4.68;;
79074;SDS011;68476;42.710;23.388;2023-07-29T04:57:05;6.93;;;5.70;;
79074;SDS011;68476;42.710;23.388;2023-07-29T04:59:31;6.43;;;5.35;;
79074;SDS011;68476;42.710;23.388;2023-07-29T05:01:56;8.48;;;5.60;;
79074;SDS011;68476;42.710;23.388;2023-07-29T05:04:22;5.95;;;4.60;;
79074;SDS011;68476;42.710;23.388;2023-07-29T05:06:48;6.70;;;4.50;;
79074;SDS011;68476;42.710;23.388;2023-07-29T05:09:14;6.50;;;4.80;;
79074;SDS011;68476;42.710;23.388;2023-07-29T05:11:41;5.20;;;4.70;;
79074;SDS011;68476;42.710;23.388;2023-07-29T05:14:07;6.30;;;4.47;;
79074;SDS011;68476;42.710;23.388;2023-07-29T05:16:33;5.82;;;4.75;;
79074;SDS011;68476;42.710;23.388;2023-07-29T05:18:59;5.50;;;4.32;;
79074;SDS011;68476;42.710;23.388;2023-07-29T05:21:24;5.57;;;4.40;;
79074;SDS011;68476;42.710;23.388;2023-07-29T05:23:50;5.55;;;4.95;;
79074;SDS011;68476;42.710;23.388;2023-07-29T05:26:15;7.70;;;4.70;;
79074;SDS011;68476;42.710;23.388;2023-07-29T05:28:40;5.13;;;4.63;;
79074;SDS011;68476;42.710;23.388;2023-07-29T05:31:06;6.78;;;4.80;;
79074;SDS011;68476;42.710;23.388;2023-07-29T05:33:31;8.43;;;5.07;;
79074;SDS011;68476;42.710;23.388;2023-07-29T05:35:57;5.28;;;4.63;;
79074;SDS011;68476;42.710;23.388;2023-07-29T05:38:22;6.38;;;4.90;;
79074;SDS011;68476;42.710;23.388;2023-07-29T05:40:48;5.30;;;4.75;;
79074;SDS011;68476;42.710;23.388;2023-07-29T05:43:14;5.78;;;4.57;;
79074;SDS011;68476;42.710;23.388;2023-07-29T05:45:39;7.50;;;4.53;;
79074;SDS011;68476;42.710;23.388;2023-07-29T05:48:05;5.97;;;4.97;;
79074;SDS011;68476;42.710;23.388;2023-07-29T05:50:30;9.98;;;4.80;;
79074;SDS011;68476;42.710;23.388;2023-07-29T05:52:56;9.43;;;4.57;;
79074;SDS011;68476;42.710;23.388;2023-07-29T05:55:21;6.50;;;4.55;;
79074;SDS011;68476;42.710;23.388;2023-07-29T05:57:47;6.05;;;4.50;;
79074;SDS011;68476;42.710;23.388;2023-07-29T06:00:12;10.70;;;4.85;;
79074;SDS011;68476;42.710;23.388;2023-07-29T06:02:38;6.70;;;4.80;;
79074;SDS011;68476;42.710;23.388;2023-07-29T06:05:04;7.35;;;4.93;;
79074;SDS011;68476;42.710;23.388;2023-07-29T06:07:30;6.80;;;4.95;;
79074;SDS011;68476;42.710;23.388;2023-07-29T06:09:57;6.88;;;5.18;;
79074;SDS011;68476;42.710;23.388;2023-07-29T06:12:23;8.40;;;5.30;;
79074;SDS011;68476;42.710;23.388;2023-07-29T06:14:48;7.00;;;4.90;;
79074;SDS011;68476;42.710;23.388;2023-07-29T06:17:13;6.20;;;4.82;;
79074;SDS011;68476;42.710;23.388;2023-07-29T06:19:39;6.95;;;4.82;;
79074;SDS011;68476;42.710;23.388;2023-07-29T06:22:04;6.40;;;4.95;;
79074;SDS011;68476;42.710;23.388;2023-07-29T06:24:30;5.40;;;4.75;;
79074;SDS011;68476;42.710;23.388;2023-07-29T06:26:56;8.23;;;4.97;;
79074;SDS011;68476;42.710;23.388;2023-07-29T06:29:21;7.00;;;5.40;;
79074;SDS011;68476;42.710;23.388;2023-07-29T06:31:47;8.27;;;5.25;;
79074;SDS011;68476;42.710;23.388;2023-07-29T06:34:12;6.50;;;4.82;;
79074;SDS011;68476;42.710;23.388;2023-07-29T06:36:37;6.32;;;5.25;;
79074;SDS011;68476;42.710;23.388;2023-07-29T06:39:03;6.28;;;4.95;;
79074;SDS011;68476;42.710;23.388;2023-07-29T06:41:28;12.65;;;5.50;;
79074;SDS011;68476;42.710;23.388;2023-07-29T06:43:53;6.32;;;4.30;;
79074;SDS011;68476;42.710;23.388;2023-07-29T06:46:19;9.00;;;5.25;;
79074;SDS011;68476;42.710;23.388;2023-07-29T06:48:44;5.75;;;4.93;;
79074;SDS011;68476;42.710;23.388;2023-07-29T06:51:09;7.70;;;5.32;;
79074;SDS011;68476;42.710;23.388;2023-07-29T06:53:35;7.25;;;4.63;;
79074;SDS011;68476;42.710;23.388;2023-07-29T06:56:00;4.97;;;4.47;;
79074;SDS011;68476;42.710;23.388;2023-07-29T06:58:26;5.78;;;4.25;;
79074;SDS011;68476;42.710;23.388;2023-07-29T07:00:52;4.90;;;4.30;;
79074;SDS011;68476;42.710;23.388;2023-07-29T07:03:17;4.82;;;4.10;;
79074;SDS011;68476;42.710;23.388;2023-07-29T07:05:43;4.95;;;4.43;;
79074;SDS011;68476;42.710;23.388;2023-07-29T07:08:08;5.03;;;4.22;;
79074;SDS011;68476;42.710;23.388;2023-07-29T07:10:34;4.85;;;3.97;;
79074;SDS011;68476;42.710;23.388;2023-07-29T07:12:59;6.22;;;4.63;;
79074;SDS011;68476;42.710;23.388;2023-07-29T07:15:24;4.95;;;4.30;;
79074;SDS011;68476;42.710;23.388;2023-07-29T07:17:50;4.85;;;4.35;;
79074;SDS011;68476;42.710;23.388;2023-07-29T07:20:16;4.78;;;4.22;;
79074;SDS011;68476;42.710;23.388;2023-07-29T07:22:41;5.10;;;4.60;;
79074;SDS011;68476;42.710;23.388;2023-07-29T07:25:07;6.00;;;4.20;;
79074;SDS011;68476;42.710;23.388;2023-07-29T07:27:32;8.43;;;4.15;;
79074;SDS011;68476;42.710;23.388;2023-07-29T07:29:58;5.28;;;4.30;;
79074;SDS011;68476;42.710;23.388;2023-07-29T07:32:23;7.03;;;4.30;;
79074;SDS011;68476;42.710;23.388;2023-07-29T07:34:49;5.13;;;4.40;;
79074;SDS011;68476;42.710;23.388;2023-07-29T07:37:14;6.25;;;4.43;;
79074;SDS011;68476;42.710;23.388;2023-07-29T07:39:41;5.28;;;4.45;;
79074;SDS011;68476;42.710;23.388;2023-07-29T07:42:06;6.30;;;4.40;;
79074;SDS011;68476;42.710;23.388;2023-07-29T07:44:31;6.60;;;3.88;;
79074;SDS011;68476;42.710;23.388;2023-07-29T07:46:57;7.18;;;4.00;;
79074;SDS011;68476;42.710;23.388;2023-07-29T07:49:22;6.28;;;3.90;;
79074;SDS011;68476;42.710;23.388;2023-07-29T07:51:48;5.50;;;4.20;;
79074;SDS011;68476;42.710;23.388;2023-07-29T07:54:13;5.63;;;4.00;;
79074;SDS011;68476;42.710;23.388;2023-07-29T07:56:38;5.03;;;4.00;;
79074;SDS011;68476;42.710;23.388;2023-07-29T07:59:04;5.13;;;4.22;;
79074;SDS011;68476;42.710;23.388;2023-07-29T08:01:36;6.35;;;4.50;;
79074;SDS011;68476;42.710;23.388;2023-07-29T08:04:02;6.10;;;4.25;;
79074;SDS011;68476;42.710;23.388;2023-07-29T08:06:27;5.35;;;4.13;;
79074;SDS011;68476;42.710;23.388;2023-07-29T08:08:53;5.72;;;4.00;;
79074;SDS011;68476;42.710;23.388;2023-07-29T08:11:18;7.82;;;4.03;;
79074;SDS011;68476;42.710;23.388;2023-07-29T08:13:43;5.35;;;3.78;;
79074;SDS011;68476;42.710;23.388;2023-07-29T08:16:09;4.97;;;3.90;;
79074;SDS011;68476;42.710;23.388;2023-07-29T08:18:34;5.82;;;4.03;;
79074;SDS011;68476;42.710;23.388;2023-07-29T08:21:00;8.05;;;4.35;;
79074;SDS011;68476;42.710;23.388;2023-07-29T08:23:31;6.63;;;3.72;;
79074;SDS011;68476;42.710;23.388;2023-07-29T08:25:59;6.78;;;3.88;;
79074;SDS011;68476;42.710;23.388;2023-07-29T08:28:27;5.60;;;3.80;;
79074;SDS011;68476;42.710;23.388;2023-07-29T08:30:53;6.38;;;3.55;;
79074;SDS011;68476;42.710;23.388;2023-07-29T08:33:19;8.25;;;3.70;;
79074;SDS011;68476;42.710;23.388;2023-07-29T08:35:44;6.47;;;3.90;;
79074;SDS011;68476;42.710;23.388;2023-07-29T08:38:09;7.10;;;3.97;;
79074;SDS011;68476;42.710;23.388;2023-07-29T08:40:35;4.53;;;3.50;;
79074;SDS011;68476;42.710;23.388;2023-07-29T08:43:06;6.80;;;3.70;;
79074;SDS011;68476;42.710;23.388;2023-07-29T08:45:35;5.22;;;3.35;;
79074;SDS011;68476;42.710;23.388;2023-07-29T08:48:06;4.18;;;2.90;;
79074;SDS011;68476;42.710;23.388;2023-07-29T08:50:35;3.22;;;2.60;;
79074;SDS011;68476;42.710;23.388;2023-07-29T08:53:01;4.30;;;3.10;;
79074;SDS011;68476;42.710;23.388;2023-07-29T08:55:30;3.95;;;3.10;;
79074;SDS011;68476;42.710;23.388;2023-07-29T08:57:56;5.45;;;3.10;;
79074;SDS011;68476;42.710;23.388;2023-07-29T09:00:23;12.23;;;3.35;;
79074;SDS011;68476;42.710;23.388;2023-07-29T09:02:48;3.25;;;2.70;;
79074;SDS011;68476;42.710;23.388;2023-07-29T09:05:14;4.40;;;3.38;;
79074;SDS011;68476;42.710;23.388;2023-07-29T09:07:39;3.42;;;2.20;;
79074;SDS011;68476;42.710;23.388;2023-07-29T09:10:08;2.90;;;2.40;;
79074;SDS011;68476;42.710;23.388;2023-07-29T09:12:35;2.80;;;2.20;;
79074;SDS011;68476;42.710;23.388;2023-07-29T09:15:01;2.63;;;2.28;;
79074;SDS011;68476;42.710;23.388;2023-07-29T09:17:26;2.97;;;2.40;;
79074;SDS011;68476;42.710;23.388;2023-07-29T09:19:55;3.17;;;2.50;;
79074;SDS011;68476;42.710;23.388;2023-07-29T09:22:21;3.47;;;2.40;;
79074;SDS011;68476;42.710;23.388;2023-07-29T09:24:46;3.30;;;2.60;;
79074;SDS011;68476;42.710;23.388;2023-07-29T09:27:30;3.13;;;2.50;;
79074;SDS011;68476;42.710;23.388;2023-07-29T09:29:57;3.85;;;2.45;;
79074;SDS011;68476;42.710;23.388;2023-07-29T09:32:24;3.60;;;2.30;;
79074;SDS011;68476;42.710;23.388;2023-07-29T09:34:50;3.88;;;2.35;;
79074;SDS011;68476;42.710;23.388;2023-07-29T09:37:22;4.95;;;2.30;;
79074;SDS011;68476;42.710;23.388;2023-07-29T09:39:49;3.30;;;2.30;;
79074;SDS011;68476;42.710;23.388;2023-07-29T09:42:21;4.57;;;2.53;;
79074;SDS011;68476;42.710;23.388;2023-07-29T09:44:49;4.75;;;2.58;;
79074;SDS011;68476;42.710;23.388;2023-07-29T09:47:19;3.30;;;2.47;;
79074;SDS011;68476;42.710;23.388;2023-07-29T09:49:52;3.08;;;2.20;;
79074;SDS011;68476;42.710;23.388;2023-07-29T09:52:22;3.55;;;2.50;;
79074;SDS011;68476;42.710;23.388;2023-07-29T09:54:48;3.30;;;2.45;;
79074;SDS011;68476;42.710;23.388;2023-07-29T09:57:14;3.20;;;2.28;;
79074;SDS011;68476;42.710;23.388;2023-07-29T09:59:41;2.67;;;2.10;;
79074;SDS011;68476;42.710;23.388;2023-07-29T10:02:15;2.50;;;2.20;;
79074;SDS011;68476;42.710;23.388;2023-07-29T10:04:42;3.28;;;2.20;;
79074;SDS011;68476;42.710;23.388;2023-07-29T10:07:09;3.08;;;2.00;;
79074;SDS011;68476;42.710;23.388;2023-07-29T10:09:35;2.60;;;2.00;;
79074;SDS011;68476;42.710;23.388;2023-07-29T10:12:02;2.65;;;1.77;;
79074;SDS011;68476;42.710;23.388;2023-07-29T10:14:31;3.00;;;1.50;;
79074;SDS011;68476;42.710;23.388;2023-07-29T10:16:57;3.35;;;1.70;;
79074;SDS011;68476;42.710;23.388;2023-07-29T10:19:23;3.03;;;1.70;;
79074;SDS011;68476;42.710;23.388;2023-07-29T10:21:50;2.00;;;1.40;;
79074;SDS011;68476;42.710;23.388;2023-07-29T10:24:18;1.20;;;1.10;;
79074;SDS011;68476;42.710;23.388;2023-07-29T10:26:47;2.63;;;1.40;;
79074;SDS011;68476;42.710;23.388;2023-07-29T10:29:14;4.10;;;1.55;;
79074;SDS011;68476;42.710;23.388;2023-07-29T10:31:45;3.13;;;1.40;;
79074;SDS011;68476;42.710;23.388;2023-07-29T10:34:11;2.17;;;1.30;;
79074;SDS011;68476;42.710;23.388;2023-07-29T10:36:38;1.70;;;1.30;;
79074;SDS011;68476;42.710;23.388;2023-07-29T10:39:06;2.10;;;1.40;;
79074;SDS011;68476;42.710;23.388;2023-07-29T10:41:54;2.42;;;1.58;;
79074;SDS011;68476;42.710;23.388;2023-07-29T10:47:14;2.10;;;1.60;;
79074;SDS011;68476;42.710;23.388;2023-07-29T10:49:44;2.00;;;1.50;;
79074;SDS011;68476;42.710;23.388;2023-07-29T10:52:28;2.30;;;1.50;;
79074;SDS011;68476;42.710;23.388;2023-07-29T10:55:13;2.83;;;1.50;;
79074;SDS011;68476;42.710;23.388;2023-07-29T10:57:49;2.83;;;1.80;;
79074;SDS011;68476;42.710;23.388;2023-07-29T11:00:15;2.95;;;1.50;;
79074;SDS011;68476;42.710;23.388;2023-07-29T11:02:40;2.85;;;1.80;;
79074;SDS011;68476;42.710;23.388;2023-07-29T11:05:07;3.60;;;1.88;;
79074;SDS011;68476;42.710;23.388;2023-07-29T11:07:58;3.20;;;1.80;;
79074;SDS011;68476;42.710;23.388;2023-07-29T11:10:43;3.28;;;1.65;;
79074;SDS011;68476;42.710;23.388;2023-07-29T11:13:09;2.17;;;1.70;;
79074;SDS011;68476;42.710;23.388;2023-07-29T11:15:36;2.78;;;1.80;;
79074;SDS011;68476;42.710;23.388;2023-07-29T11:18:04;2.72;;;1.50;;
79074;SDS011;68476;42.710;23.388;2023-07-29T11:20:34;4.00;;;1.67;;
79074;SDS011;68476;42.710;23.388;2023-07-29T11:25:27;2.08;;;1.60;;
79074;SDS011;68476;42.710;23.388;2023-07-29T11:27:55;2.25;;;1.50;;
79074;SDS011;68476;42.710;23.388;2023-07-29T11:30:22;2.53;;;1.50;;
79074;SDS011;68476;42.710;23.388;2023-07-29T11:32:55;1.40;;;1.10;;
79074;SDS011;68476;42.710;23.388;2023-07-29T11:35:22;2.53;;;1.20;;
79074;SDS011;68476;42.710;23.388;2023-07-29T11:37:50;3.95;;;1.40;;
79074;SDS011;68476;42.710;23.388;2023-07-29T11:40:18;1.63;;;1.30;;
79074;SDS011;68476;42.710;23.388;2023-07-29T11:42:45;1.80;;;1.40;;
79074;SDS011;68476;42.710;23.388;2023-07-29T11:45:12;2.45;;;1.30;;
79074;SDS011;68476;42.710;23.388;2023-07-29T11:47:38;4.53;;;1.45;;
79074;SDS011;68476;42.710;23.388;2023-07-29T11:50:05;1.88;;;1.30;;
79074;SDS011;68476;42.710;23.388;2023-07-29T11:52:35;2.33;;;1.30;;
79074;SDS011;68476;42.710;23.388;2023-07-29T11:55:02;1.63;;;1.30;;
79074;SDS011;68476;42.710;23.388;2023-07-29T11:57:36;1.70;;;1.30;;
79074;SDS011;68476;42.710;23.388;2023-07-29T12:00:03;1.83;;;1.33;;
79074;SDS011;68476;42.710;23.388;2023-07-29T12:02:33;1.65;;;1.30;;
79074;SDS011;68476;42.710;23.388;2023-07-29T12:05:01;2.13;;;1.35;;
79074;SDS011;68476;42.710;23.388;2023-07-29T12:07:29;1.65;;;1.38;;
79074;SDS011;68476;42.710;23.388;2023-07-29T12:09:54;2.30;;;1.63;;
79074;SDS011;68476;42.710;23.388;2023-07-29T12:12:21;2.00;;;1.40;;
79074;SDS011;68476;42.710;23.388;2023-07-29T12:14:47;2.10;;;1.58;;
79074;SDS011;68476;42.710;23.388;2023-07-29T12:17:12;2.00;;;1.63;;
79074;SDS011;68476;42.710;23.388;2023-07-29T12:19:38;2.47;;;1.48;;
79074;SDS011;68476;42.710;23.388;2023-07-29T12:22:09;2.42;;;1.40;;
79074;SDS011;68476;42.710;23.388;2023-07-29T12:24:39;2.30;;;1.50;;
79074;SDS011;68476;42.710;23.388;2023-07-29T12:27:09;7.18;;;1.90;;
79074;SDS011;68476;42.710;23.388;2023-07-29T12:29:41;2.72;;;1.88;;
79074;SDS011;68476;42.710;23.388;2023-07-29T12:32:07;3.35;;;1.70;;
79074;SDS011;68476;42.710;23.388;2023-07-29T12:34:33;6.20;;;1.83;;
79074;SDS011;68476;42.710;23.388;2023-07-29T12:37:02;4.82;;;2.20;;
79074;SDS011;68476;42.710;23.388;2023-07-29T12:39:29;2.22;;;1.90;;
79074;SDS011;68476;42.710;23.388;2023-07-29T12:41:58;2.42;;;1.90;;
79074;SDS011;68476;42.710;23.388;2023-07-29T12:44:32;2.90;;;1.88;;
79074;SDS011;68476;42.710;23.388;2023-07-29T12:47:03;3.30;;;1.58;;
79074;SDS011;68476;42.710;23.388;2023-07-29T12:49:30;3.67;;;1.80;;
79074;SDS011;68476;42.710;23.388;2023-07-29T12:51:56;2.20;;;1.80;;
79074;SDS011;68476;42.710;23.388;2023-07-29T12:54:22;2.20;;;1.60;;
79074;SDS011;68476;42.710;23.388;2023-07-29T12:56:47;2.65;;;1.70;;
79074;SDS011;68476;42.710;23.388;2023-07-29T12:59:13;2.75;;;1.80;;
79074;SDS011;68476;42.710;23.388;2023-07-29T13:01:38;2.38;;;1.70;;
79074;SDS011;68476;42.710;23.388;2023-07-29T13:04:04;2.47;;;1.80;;
79074;SDS011;68476;42.710;23.388;2023-07-29T13:06:29;2.40;;;1.80;;
79074;SDS011;68476;42.710;23.388;2023-07-29T13:08:55;2.67;;;1.85;;
79074;SDS011;68476;42.710;23.388;2023-07-29T13:11:21;2.75;;;1.80;;
79074;SDS011;68476;42.710;23.388;2023-07-29T13:13:47;2.35;;;1.70;;
79074;SDS011;68476;42.710;23.388;2023-07-29T13:16:12;3.15;;;1.67;;
79074;SDS011;68476;42.710;23.388;2023-07-29T13:18:38;2.22;;;1.63;;
79074;SDS011;68476;42.710;23.388;2023-07-29T13:21:04;2.10;;;1.63;;
79074;SDS011;68476;42.710;23.388;2023-07-29T13:23:29;2.35;;;1.67;;
79074;SDS011;68476;42.710;23.388;2023-07-29T13:25:57;3.17;;;1.80;;
79074;SDS011;68476;42.710;23.388;2023-07-29T13:30:48;2.53;;;1.70;;
79074;SDS011;68476;42.710;23.388;2023-07-29T13:33:14;2.47;;;1.80;;
79074;SDS011;68476;42.710;23.388;2023-07-29T13:35:39;2.20;;;1.65;;
79074;SDS011;68476;42.710;23.388;2023-07-29T13:38:04;2.60;;;1.70;;
79074;SDS011;68476;42.710;23.388;2023-07-29T13:40:30;2.10;;;1.70;;
79074;SDS011;68476;42.710;23.388;2023-07-29T13:42:56;1.90;;;1.58;;
79074;SDS011;68476;42.710;23.388;2023-07-29T13:45:22;2.17;;;1.63;;
79074;SDS011;68476;42.710;23.388;2023-07-29T13:47:48;2.63;;;1.80;;
79074;SDS011;68476;42.710;23.388;2023-07-29T13:50:15;3.20;;;1.83;;
79074;SDS011;68476;42.710;23.388;2023-07-29T13:52:40;2.40;;;1.70;;
79074;SDS011;68476;42.710;23.388;2023-07-29T13:55:06;2.78;;;1.80;;
79074;SDS011;68476;42.710;23.388;2023-07-29T13:57:32;2.72;;;1.80;;
79074;SDS011;68476;42.710;23.388;2023-07-29T13:59:57;2.33;;;1.73;;
79074;SDS011;68476;42.710;23.388;2023-07-29T14:02:24;4.40;;;2.10;;
79074;SDS011;68476;42.710;23.388;2023-07-29T14:04:51;4.05;;;1.73;;
79074;SDS011;68476;42.710;23.388;2023-07-29T14:07:16;3.38;;;1.85;;
79074;SDS011;68476;42.710;23.388;2023-07-29T14:09:42;4.45;;;2.08;;
79074;SDS011;68476;42.710;23.388;2023-07-29T14:12:08;3.33;;;1.80;;
79074;SDS011;68476;42.710;23.388;2023-07-29T14:14:39;8.70;;;2.25;;
79074;SDS011;68476;42.710;23.388;2023-07-29T14:17:05;2.88;;;1.88;;
79074;SDS011;68476;42.710;23.388;2023-07-29T14:19:32;2.40;;;1.90;;
79074;SDS011;68476;42.710;23.388;2023-07-29T14:21:57;4.45;;;1.90;;
79074;SDS011;68476;42.710;23.388;2023-07-29T14:24:23;4.97;;;2.03;;
79074;SDS011;68476;42.710;23.388;2023-07-29T14:26:48;2.70;;;1.85;;
79074;SDS011;68476;42.710;23.388;2023-07-29T14:29:14;2.47;;;1.98;;
79074;SDS011;68476;42.710;23.388;2023-07-29T14:31:39;3.05;;;2.00;;
79074;SDS011;68476;42.710;23.388;2023-07-29T14:34:05;1.98;;;1.70;;
79074;SDS011;68476;42.710;23.388;2023-07-29T14:36:30;3.53;;;2.00;;
79074;SDS011;68476;42.710;23.388;2023-07-29T14:38:56;5.30;;;2.20;;
79074;SDS011;68476;42.710;23.388;2023-07-29T14:41:21;4.70;;;1.80;;
79074;SDS011;68476;42.710;23.388;2023-07-29T14:43:46;4.38;;;1.90;;